createdAt,value
2017-11-29T00:00:34.723Z,993.34
2017-11-29T00:01:34.735Z,993.38
2017-11-29T00:02:34.745Z,993.36
2017-11-29T00:03:34.760Z,993.36
2017-11-29T00:04:34.787Z,993.36
2017-11-29T00:05:34.782Z,993.33
2017-11-29T00:06:34.792Z,993.3
2017-11-29T00:07:34.804Z,993.33
2017-11-29T00:08:34.814Z,993.35
2017-11-29T00:09:34.832Z,993.33
2017-11-29T00:10:34.839Z,993.34
2017-11-29T00:11:34.850Z,993.33
2017-11-29T00:12:34.862Z,993.37
2017-11-29T00:13:34.873Z,993.35
2017-11-29T00:14:34.885Z,993.34
2017-11-29T00:15:34.901Z,993.35
2017-11-29T00:16:34.908Z,993.36
2017-11-29T00:17:34.922Z,993.37
2017-11-29T00:18:34.929Z,993.38
2017-11-29T00:19:34.949Z,993.38
2017-11-29T00:20:34.955Z,993.37
2017-11-29T00:21:34.966Z,993.4
2017-11-29T00:22:34.978Z,993.42
2017-11-29T00:23:34.991Z,993.4
2017-11-29T00:24:35.001Z,993.44
2017-11-29T00:25:35.014Z,993.43
2017-11-29T00:26:35.025Z,993.42
2017-11-29T00:27:35.035Z,993.46
2017-11-29T00:28:35.048Z,993.43
2017-11-29T00:29:35.058Z,993.45
2017-11-29T00:30:35.069Z,993.41
2017-11-29T00:31:35.082Z,993.42
2017-11-29T00:32:35.106Z,993.42
2017-11-29T00:33:35.103Z,993.41
2017-11-29T00:34:35.117Z,993.42
2017-11-29T00:35:35.127Z,993.43
2017-11-29T00:36:35.147Z,993.38
2017-11-29T00:37:35.149Z,993.42
2017-11-29T00:38:35.170Z,993.39
2017-11-29T00:39:35.173Z,993.4
2017-11-29T00:40:35.183Z,993.43
2017-11-29T00:41:35.196Z,993.45
2017-11-29T00:42:35.210Z,993.45
2017-11-29T00:43:35.219Z,993.42
2017-11-29T00:44:35.231Z,993.45
2017-11-29T00:45:35.242Z,993.43
2017-11-29T00:46:35.253Z,993.41
2017-11-29T00:47:35.266Z,993.4
2017-11-29T00:48:35.275Z,993.4
2017-11-29T00:49:35.287Z,993.41
2017-11-29T00:50:35.298Z,993.41
2017-11-29T00:51:35.310Z,993.43
2017-11-29T00:52:35.322Z,993.43
2017-11-29T00:53:35.335Z,993.42
2017-11-29T00:54:35.345Z,993.42
2017-11-29T00:55:35.358Z,993.45
2017-11-29T00:56:35.369Z,993.46
2017-11-29T00:57:35.380Z,993.44
2017-11-29T00:58:35.391Z,993.41
2017-11-29T00:59:35.406Z,993.41
2017-11-29T01:00:35.414Z,993.41
2017-11-29T01:01:35.422Z,993.45
2017-11-29T01:02:35.436Z,993.39
2017-11-29T01:03:35.449Z,993.42
2017-11-29T01:04:35.461Z,993.38
2017-11-29T01:05:35.469Z,993.43
2017-11-29T01:06:35.484Z,993.42
2017-11-29T01:07:35.492Z,993.43
2017-11-29T01:08:35.505Z,993.42
2017-11-29T01:09:35.515Z,993.45
2017-11-29T01:10:35.529Z,993.46
2017-11-29T01:11:35.540Z,993.45
2017-11-29T01:12:35.553Z,993.48
2017-11-29T01:13:35.562Z,993.48
2017-11-29T01:14:35.588Z,993.44
2017-11-29T01:15:35.583Z,993.49
2017-11-29T01:16:35.595Z,993.48
2017-11-29T01:17:35.607Z,993.46
2017-11-29T01:18:35.620Z,993.49
2017-11-29T01:19:35.630Z,993.48
2017-11-29T01:20:35.641Z,993.49
2017-11-29T01:21:35.652Z,993.47
2017-11-29T01:22:35.665Z,993.44
2017-11-29T01:23:35.676Z,993.47
2017-11-29T01:24:35.689Z,993.46
2017-11-29T01:25:35.700Z,993.48
2017-11-29T01:26:35.711Z,993.5
2017-11-29T01:27:35.721Z,993.5
2017-11-29T01:28:35.732Z,993.49
2017-11-29T01:29:35.742Z,993.48
2017-11-29T01:30:35.755Z,993.48
2017-11-29T01:31:35.766Z,993.48
2017-11-29T01:32:35.780Z,993.49
2017-11-29T01:33:35.788Z,993.49
2017-11-29T01:34:35.801Z,993.48
2017-11-29T01:35:35.814Z,993.5
2017-11-29T01:36:35.823Z,993.45
2017-11-29T01:37:35.835Z,993.49
2017-11-29T01:38:35.844Z,993.48
2017-11-29T01:39:35.857Z,993.49
2017-11-29T01:40:35.869Z,993.48
2017-11-29T01:41:35.878Z,993.46
2017-11-29T01:42:35.890Z,993.44
2017-11-29T01:43:35.907Z,993.48
2017-11-29T01:44:35.916Z,993.47
2017-11-29T01:45:35.928Z,993.46
2017-11-29T01:46:35.938Z,993.45
2017-11-29T01:47:35.950Z,993.46
2017-11-29T01:48:35.962Z,993.47
2017-11-29T01:49:35.972Z,993.48
2017-11-29T01:50:35.987Z,993.46
2017-11-29T01:51:35.996Z,993.43
2017-11-29T01:52:36.006Z,993.43
2017-11-29T01:53:36.019Z,993.46
2017-11-29T01:54:36.029Z,993.46
2017-11-29T01:55:36.042Z,993.48
2017-11-29T01:56:36.054Z,993.47
2017-11-29T01:57:36.067Z,993.48
2017-11-29T01:58:36.077Z,993.49
2017-11-29T01:59:36.089Z,993.47
2017-11-29T02:00:36.099Z,993.45
2017-11-29T02:01:36.113Z,993.49
2017-11-29T02:02:36.126Z,993.43
2017-11-29T02:03:36.188Z,993.46
2017-11-29T02:04:36.143Z,993.44
2017-11-29T02:05:36.158Z,993.43
2017-11-29T02:06:36.165Z,993.44
2017-11-29T02:07:36.176Z,993.42
2017-11-29T02:08:36.189Z,993.4
2017-11-29T02:09:36.201Z,993.39
2017-11-29T02:10:36.212Z,993.41
2017-11-29T02:11:36.224Z,993.4
2017-11-29T02:12:36.235Z,993.39
2017-11-29T02:13:36.246Z,993.4
2017-11-29T02:14:36.258Z,993.37
2017-11-29T02:15:36.270Z,993.37
2017-11-29T02:16:36.330Z,993.36
2017-11-29T02:17:36.303Z,993.34
2017-11-29T02:18:36.302Z,993.36
2017-11-29T02:19:36.313Z,993.36
2017-11-29T02:20:36.326Z,993.35
2017-11-29T02:21:36.336Z,993.35
2017-11-29T02:22:36.346Z,993.35
2017-11-29T02:23:36.357Z,993.35
2017-11-29T02:24:36.371Z,993.33
2017-11-29T02:25:36.381Z,993.27
2017-11-29T02:26:36.393Z,993.29
2017-11-29T02:27:36.404Z,993.29
2017-11-29T02:28:36.413Z,993.25
2017-11-29T02:29:36.427Z,993.27
2017-11-29T02:30:36.437Z,993.27
2017-11-29T02:31:36.450Z,993.26
2017-11-29T02:32:36.474Z,993.27
2017-11-29T02:33:36.471Z,993.26
2017-11-29T02:34:36.486Z,993.26
2017-11-29T02:35:36.499Z,993.3
2017-11-29T02:36:36.506Z,993.25
2017-11-29T02:37:36.518Z,993.25
2017-11-29T02:38:36.530Z,993.22
2017-11-29T02:39:36.541Z,993.22
2017-11-29T02:40:36.551Z,993.21
2017-11-29T02:41:36.567Z,993.24
2017-11-29T02:42:36.576Z,993.19
2017-11-29T02:43:36.586Z,993.2
2017-11-29T02:44:36.599Z,993.18
2017-11-29T02:45:36.614Z,993.2
2017-11-29T02:46:36.617Z,993.2
2017-11-29T02:47:36.629Z,993.2
2017-11-29T02:48:36.640Z,993.19
2017-11-29T02:49:36.652Z,993.14
2017-11-29T02:50:36.669Z,993.15
2017-11-29T02:51:36.676Z,993.12
2017-11-29T02:52:36.688Z,993.12
2017-11-29T02:53:36.696Z,993.09
2017-11-29T02:54:36.708Z,993.08
2017-11-29T02:55:36.718Z,993.1
2017-11-29T02:56:36.730Z,993.11
2017-11-29T02:57:36.743Z,993.1
2017-11-29T02:58:36.753Z,993.09
2017-11-29T02:59:36.764Z,993.1
2017-11-29T03:00:36.777Z,993.08
2017-11-29T03:01:36.786Z,993.07
2017-11-29T03:02:36.799Z,993.07
2017-11-29T03:03:36.810Z,993.03
2017-11-29T03:04:36.821Z,993.06
2017-11-29T03:05:36.831Z,993.08
2017-11-29T03:06:36.847Z,993.1
2017-11-29T03:07:36.855Z,993.1
2017-11-29T03:08:36.875Z,993.1
2017-11-29T03:09:36.877Z,993.16
2017-11-29T03:10:36.887Z,993.15
2017-11-29T03:11:36.899Z,993.14
2017-11-29T03:12:36.911Z,993.16
2017-11-29T03:13:36.920Z,993.14
2017-11-29T03:14:36.935Z,993.13
2017-11-29T03:15:36.944Z,993.14
2017-11-29T03:16:36.954Z,993.11
2017-11-29T03:17:36.968Z,993.1
2017-11-29T03:18:36.979Z,993.11
2017-11-29T03:19:36.990Z,993.11
2017-11-29T03:20:36.999Z,993.12
2017-11-29T03:21:37.014Z,993.15
2017-11-29T03:22:37.023Z,993.12
2017-11-29T03:23:37.033Z,993.14
2017-11-29T03:24:37.044Z,993.14
2017-11-29T03:25:37.057Z,993.14
2017-11-29T03:26:37.067Z,993.18
2017-11-29T03:27:37.077Z,993.18
2017-11-29T03:28:37.090Z,993.2
2017-11-29T03:29:37.101Z,993.19
2017-11-29T03:30:37.117Z,993.18
2017-11-29T03:31:37.123Z,993.18
2017-11-29T03:32:37.138Z,993.17
2017-11-29T03:33:37.146Z,993.17
2017-11-29T03:34:37.158Z,993.22
2017-11-29T03:35:37.170Z,993.19
2017-11-29T03:36:37.179Z,993.23
2017-11-29T03:37:37.193Z,993.22
2017-11-29T03:38:37.202Z,993.22
2017-11-29T03:39:37.215Z,993.19
2017-11-29T03:40:37.225Z,993.2
2017-11-29T03:41:37.235Z,993.16
2017-11-29T03:42:37.249Z,993.15
2017-11-29T03:43:37.259Z,993.13
2017-11-29T03:44:37.270Z,993.13
2017-11-29T03:45:37.286Z,993.15
2017-11-29T03:46:37.290Z,993.12
2017-11-29T03:47:37.302Z,993.15
2017-11-29T03:48:37.318Z,993.17
2017-11-29T03:49:37.326Z,993.2
2017-11-29T03:50:37.338Z,993.18
2017-11-29T03:51:37.347Z,993.16
2017-11-29T03:52:37.360Z,993.12
2017-11-29T03:53:37.378Z,993.17
2017-11-29T03:54:37.383Z,993.14
2017-11-29T03:55:37.393Z,993.14
2017-11-29T03:56:37.418Z,993.13
2017-11-29T03:57:37.415Z,993.17
2017-11-29T03:58:37.425Z,993.21
2017-11-29T03:59:37.436Z,993.2
2017-11-29T04:00:37.452Z,993.2
2017-11-29T04:01:37.458Z,993.2
2017-11-29T04:02:37.471Z,993.22
2017-11-29T04:03:37.480Z,993.22
2017-11-29T04:04:37.495Z,993.23
2017-11-29T04:05:37.504Z,993.21
2017-11-29T04:06:37.515Z,993.2
2017-11-29T04:07:37.526Z,993.19
2017-11-29T04:08:37.536Z,993.19
2017-11-29T04:09:37.548Z,993.14
2017-11-29T04:10:37.558Z,993.15
2017-11-29T04:11:37.574Z,993.12
2017-11-29T04:12:37.584Z,993.12
2017-11-29T04:13:37.592Z,993.16
2017-11-29T04:14:37.606Z,993.1
2017-11-29T04:15:37.615Z,993.12
2017-11-29T04:16:37.629Z,993.06
2017-11-29T04:17:37.638Z,993.07
2017-11-29T04:18:37.648Z,993.05
2017-11-29T04:19:37.659Z,993.05
2017-11-29T04:20:37.672Z,993.05
2017-11-29T04:21:37.682Z,993.05
2017-11-29T04:22:37.693Z,993.07
2017-11-29T04:23:37.705Z,993.05
2017-11-29T04:24:37.715Z,993.06
2017-11-29T04:25:37.724Z,993.03
2017-11-29T04:26:37.741Z,993.08
2017-11-29T04:27:37.747Z,993.06
2017-11-29T04:28:37.761Z,993.06
2017-11-29T04:29:37.773Z,993.13
2017-11-29T04:30:37.781Z,993.1
2017-11-29T04:31:37.793Z,993.1
2017-11-29T04:32:37.806Z,993.09
2017-11-29T04:33:37.871Z,993.06
2017-11-29T04:34:37.827Z,993.01
2017-11-29T04:35:37.838Z,993
2017-11-29T04:36:37.850Z,992.97
2017-11-29T04:37:37.860Z,992.98
2017-11-29T04:38:37.874Z,992.97
2017-11-29T04:39:37.885Z,992.99
2017-11-29T04:40:37.894Z,993.01
2017-11-29T04:41:37.905Z,992.98
2017-11-29T04:42:37.916Z,993.02
2017-11-29T04:43:37.927Z,993.01
2017-11-29T04:44:37.939Z,993
2017-11-29T04:45:37.948Z,992.96
2017-11-29T04:46:37.962Z,992.97
2017-11-29T04:47:37.973Z,992.97
2017-11-29T04:48:37.983Z,992.97
2017-11-29T04:49:37.993Z,992.94
2017-11-29T04:50:38.005Z,992.96
2017-11-29T04:51:38.019Z,992.93
2017-11-29T04:52:38.027Z,992.89
2017-11-29T04:53:38.038Z,992.9
2017-11-29T04:54:38.050Z,992.91
2017-11-29T04:55:38.060Z,992.89
2017-11-29T04:56:38.085Z,992.95
2017-11-29T04:57:38.092Z,992.95
2017-11-29T04:58:38.145Z,992.94
2017-11-29T04:59:38.154Z,992.97
2017-11-29T05:00:38.118Z,992.97
2017-11-29T05:01:38.127Z,992.96
2017-11-29T05:02:38.148Z,993
2017-11-29T05:03:38.150Z,993
2017-11-29T05:04:38.161Z,993
2017-11-29T05:05:38.173Z,992.99
2017-11-29T05:06:38.185Z,993
2017-11-29T05:07:38.192Z,993.01
2017-11-29T05:08:38.212Z,993
2017-11-29T05:09:38.216Z,992.99
2017-11-29T05:10:38.225Z,993.03
2017-11-29T05:11:38.236Z,993.01
2017-11-29T05:12:38.339Z,993.02
2017-11-29T05:13:38.258Z,992.99
2017-11-29T05:14:38.272Z,992.98
2017-11-29T05:15:38.280Z,992.98
2017-11-29T05:16:38.307Z,992.98
2017-11-29T05:17:38.303Z,992.94
2017-11-29T05:18:38.327Z,992.95
2017-11-29T05:19:38.325Z,992.93
2017-11-29T05:20:38.338Z,992.96
2017-11-29T05:21:38.346Z,993
2017-11-29T05:22:38.369Z,993
2017-11-29T05:23:38.369Z,993.02
2017-11-29T05:24:38.387Z,993.03
2017-11-29T05:25:38.394Z,993.01
2017-11-29T05:26:38.408Z,992.99
2017-11-29T05:27:38.411Z,992.98
2017-11-29T05:28:38.425Z,992.94
2017-11-29T05:29:38.436Z,992.97
2017-11-29T05:30:38.453Z,992.96
2017-11-29T05:31:38.458Z,992.98
2017-11-29T05:32:38.468Z,992.97
2017-11-29T05:33:38.478Z,993.01
2017-11-29T05:34:38.490Z,992.99
2017-11-29T05:35:38.528Z,993.02
2017-11-29T05:36:38.511Z,993.05
2017-11-29T05:37:38.523Z,993.05
2017-11-29T05:38:38.535Z,993.06
2017-11-29T05:39:38.551Z,993.05
2017-11-29T05:40:38.557Z,993.05
2017-11-29T05:41:38.567Z,993.06
2017-11-29T05:42:38.576Z,993.02
2017-11-29T05:43:38.598Z,993.01
2017-11-29T05:44:38.607Z,993.02
2017-11-29T05:45:38.611Z,992.99
2017-11-29T05:46:38.621Z,993.04
2017-11-29T05:47:38.651Z,993.04
2017-11-29T05:48:38.643Z,993.03
2017-11-29T05:49:38.654Z,993.03
2017-11-29T05:50:38.664Z,993.06
2017-11-29T05:51:38.676Z,993.01
2017-11-29T05:52:38.687Z,992.99
2017-11-29T05:53:38.732Z,993.01
2017-11-29T05:54:38.706Z,992.97
2017-11-29T05:55:38.719Z,992.94
2017-11-29T05:56:38.731Z,992.96
2017-11-29T05:57:38.746Z,992.99
2017-11-29T05:58:38.752Z,993.02
2017-11-29T05:59:38.764Z,993
2017-11-29T06:00:38.773Z,993.04
2017-11-29T06:01:38.784Z,993.02
2017-11-29T06:02:38.811Z,993.07
2017-11-29T06:03:38.806Z,993.08
2017-11-29T06:04:38.842Z,993.08
2017-11-29T06:05:38.834Z,993.1
2017-11-29T06:06:38.842Z,993.12
2017-11-29T06:07:38.850Z,993.11
2017-11-29T06:08:38.862Z,993.11
2017-11-29T06:09:38.877Z,993.1
2017-11-29T06:10:38.888Z,993.17
2017-11-29T06:11:38.902Z,993.17
2017-11-29T06:12:38.904Z,993.19
2017-11-29T06:13:38.915Z,993.21
2017-11-29T06:14:38.928Z,993.2
2017-11-29T06:15:38.937Z,993.26
2017-11-29T06:16:38.950Z,993.22
2017-11-29T06:17:38.959Z,993.24
2017-11-29T06:18:38.971Z,993.23
2017-11-29T06:19:38.980Z,993.31
2017-11-29T06:20:38.994Z,993.33
2017-11-29T06:21:39.008Z,993.29
2017-11-29T06:22:39.012Z,993.32
2017-11-29T06:23:39.026Z,993.31
2017-11-29T06:24:39.037Z,993.28
2017-11-29T06:25:39.049Z,993.29
2017-11-29T06:26:39.061Z,993.31
2017-11-29T06:27:39.068Z,993.29
2017-11-29T06:28:39.081Z,993.32
2017-11-29T06:29:39.093Z,993.34
2017-11-29T06:30:39.121Z,993.36
2017-11-29T06:31:39.116Z,993.35
2017-11-29T06:32:39.125Z,993.32
2017-11-29T06:33:39.164Z,993.38
2017-11-29T06:34:39.144Z,993.4
2017-11-29T06:35:39.157Z,993.4
2017-11-29T06:36:39.167Z,993.39
2017-11-29T06:37:39.177Z,993.43
2017-11-29T06:38:39.195Z,993.39
2017-11-29T06:39:39.216Z,993.37
2017-11-29T06:40:39.211Z,993.39
2017-11-29T06:41:39.222Z,993.37
2017-11-29T06:42:39.233Z,993.4
2017-11-29T06:43:39.245Z,993.44
2017-11-29T06:44:39.256Z,993.41
2017-11-29T06:45:39.269Z,993.37
2017-11-29T06:46:39.281Z,993.39
2017-11-29T06:47:39.291Z,993.36
2017-11-29T06:48:39.299Z,993.37
2017-11-29T06:49:39.309Z,993.36
2017-11-29T06:50:39.320Z,993.38
2017-11-29T06:51:39.330Z,993.39
2017-11-29T06:52:39.342Z,993.39
2017-11-29T06:53:39.353Z,993.35
2017-11-29T06:54:39.365Z,993.35
2017-11-29T06:55:39.373Z,993.33
2017-11-29T06:56:39.384Z,993.37
2017-11-29T06:57:39.399Z,993.36
2017-11-29T06:58:39.407Z,993.39
2017-11-29T06:59:39.416Z,993.41
2017-11-29T07:00:39.430Z,993.42
2017-11-29T07:01:39.440Z,993.44
2017-11-29T07:02:39.450Z,993.44
2017-11-29T07:03:39.459Z,993.44
2017-11-29T07:04:39.473Z,993.47
2017-11-29T07:05:39.482Z,993.46
2017-11-29T07:06:39.493Z,993.48
2017-11-29T07:07:39.504Z,993.46
2017-11-29T07:08:39.515Z,993.48
2017-11-29T07:09:39.545Z,993.48
2017-11-29T07:10:39.539Z,993.49
2017-11-29T07:11:39.547Z,993.48
2017-11-29T07:12:39.568Z,993.48
2017-11-29T07:13:39.569Z,993.47
2017-11-29T07:14:39.580Z,993.45
2017-11-29T07:15:39.590Z,993.46
2017-11-29T07:16:39.603Z,993.48
2017-11-29T07:17:39.628Z,993.48
2017-11-29T07:18:39.624Z,993.51
2017-11-29T07:19:39.635Z,993.54
2017-11-29T07:20:39.646Z,993.58
2017-11-29T07:21:39.690Z,993.52
2017-11-29T07:22:39.667Z,993.54
2017-11-29T07:23:39.681Z,993.54
2017-11-29T07:24:39.691Z,993.58
2017-11-29T07:25:39.698Z,993.57
2017-11-29T07:26:39.712Z,993.54
2017-11-29T07:27:39.732Z,993.53
2017-11-29T07:28:39.732Z,993.54
2017-11-29T07:29:39.746Z,993.57
2017-11-29T07:30:39.756Z,993.63
2017-11-29T07:31:39.766Z,993.63
2017-11-29T07:32:39.777Z,993.71
2017-11-29T07:33:39.839Z,993.69
2017-11-29T07:34:39.798Z,993.7
2017-11-29T07:35:39.811Z,993.72
2017-11-29T07:36:39.819Z,993.72
2017-11-29T07:37:39.832Z,993.7
2017-11-29T07:38:39.844Z,993.7
2017-11-29T07:39:39.854Z,993.73
2017-11-29T07:40:39.863Z,993.73
2017-11-29T07:41:39.876Z,993.71
2017-11-29T07:42:39.887Z,993.75
2017-11-29T07:43:39.897Z,993.72
2017-11-29T07:44:39.908Z,993.74
2017-11-29T07:45:39.919Z,993.77
2017-11-29T07:46:39.931Z,993.71
2017-11-29T07:47:39.943Z,993.72
2017-11-29T07:48:39.956Z,993.79
2017-11-29T07:49:39.962Z,993.76
2017-11-29T07:50:39.976Z,993.75
2017-11-29T07:51:40.195Z,993.81
2017-11-29T07:52:39.997Z,993.82
2017-11-29T07:53:40.007Z,993.81
2017-11-29T07:54:40.019Z,993.84
2017-11-29T07:55:40.029Z,993.8
2017-11-29T07:56:40.039Z,993.87
2017-11-29T07:57:40.051Z,993.87
2017-11-29T07:58:40.064Z,993.86
2017-11-29T07:59:40.076Z,993.89
2017-11-29T08:00:40.083Z,993.83
2017-11-29T08:01:40.097Z,993.87
2017-11-29T08:02:40.115Z,993.85
2017-11-29T08:03:40.127Z,993.87
2017-11-29T08:04:40.133Z,993.85
2017-11-29T08:05:40.147Z,993.86
2017-11-29T08:06:40.149Z,993.86
2017-11-29T08:07:40.161Z,993.83
2017-11-29T08:08:40.173Z,993.86
2017-11-29T08:09:40.182Z,993.9
2017-11-29T08:10:40.193Z,993.88
2017-11-29T08:11:40.206Z,993.87
2017-11-29T08:12:40.220Z,993.91
2017-11-29T08:13:40.235Z,993.89
2017-11-29T08:14:40.238Z,993.88
2017-11-29T08:15:40.253Z,993.89
2017-11-29T08:16:40.266Z,993.91
2017-11-29T08:17:40.271Z,993.88
2017-11-29T08:18:40.284Z,993.89
2017-11-29T08:19:40.297Z,993.88
2017-11-29T08:20:40.306Z,993.89
2017-11-29T08:21:40.315Z,993.91
2017-11-29T08:22:40.329Z,993.89
2017-11-29T08:23:40.336Z,993.93
2017-11-29T08:24:40.350Z,993.9
2017-11-29T08:25:40.362Z,993.86
2017-11-29T08:26:40.370Z,993.87
2017-11-29T08:27:40.383Z,993.89
2017-11-29T08:28:40.393Z,993.83
2017-11-29T08:29:40.409Z,993.86
2017-11-29T08:30:40.414Z,993.92
2017-11-29T08:31:40.429Z,993.89
2017-11-29T08:32:40.437Z,993.92
2017-11-29T08:33:40.449Z,993.93
2017-11-29T08:34:40.461Z,993.9
2017-11-29T08:35:40.470Z,993.95
2017-11-29T08:36:40.480Z,994
2017-11-29T08:37:40.491Z,993.96
2017-11-29T08:38:40.504Z,993.96
2017-11-29T08:39:40.514Z,993.96
2017-11-29T08:40:40.524Z,993.96
2017-11-29T08:41:40.536Z,993.99
2017-11-29T08:42:40.557Z,994.02
2017-11-29T08:43:40.560Z,994.01
2017-11-29T08:44:40.568Z,993.99
2017-11-29T08:45:40.579Z,994.04
2017-11-29T08:46:40.592Z,994.06
2017-11-29T08:47:40.604Z,994.09
2017-11-29T08:48:40.612Z,994.09
2017-11-29T08:49:40.622Z,994.04
2017-11-29T08:50:40.634Z,994.09
2017-11-29T08:51:40.646Z,994.06
2017-11-29T08:52:40.657Z,994.04
2017-11-29T08:53:40.671Z,994.06
2017-11-29T08:54:40.681Z,994.04
2017-11-29T08:55:40.690Z,994.08
2017-11-29T08:56:40.705Z,994.04
2017-11-29T08:57:40.713Z,994.02
2017-11-29T08:58:40.740Z,994.07
2017-11-29T08:59:40.734Z,994.09
2017-11-29T09:00:40.748Z,994.07
2017-11-29T09:01:40.756Z,994.07
2017-11-29T09:02:40.769Z,994.04
2017-11-29T09:03:40.779Z,994.03
2017-11-29T09:04:40.789Z,994.04
2017-11-29T09:05:40.800Z,994.02
2017-11-29T09:06:40.924Z,994.05
2017-11-29T09:07:40.823Z,994.09
2017-11-29T09:08:40.833Z,994.05
2017-11-29T09:09:40.844Z,994.07
2017-11-29T09:10:40.855Z,994.08
2017-11-29T09:11:40.865Z,994.06
2017-11-29T09:12:40.877Z,994.02
2017-11-29T09:13:40.888Z,994.01
2017-11-29T09:14:40.902Z,994.04
2017-11-29T09:15:40.911Z,994.02
2017-11-29T09:16:40.922Z,993.99
2017-11-29T09:17:40.934Z,994.04
2017-11-29T09:18:40.948Z,994.05
2017-11-29T09:19:40.956Z,994.04
2017-11-29T09:20:40.966Z,994.04
2017-11-29T09:21:40.976Z,994.09
2017-11-29T09:22:40.988Z,994.08
2017-11-29T09:23:41.088Z,994.05
2017-11-29T09:24:41.009Z,994.07
2017-11-29T09:25:41.042Z,994.08
2017-11-29T09:26:41.033Z,994.05
2017-11-29T09:27:41.052Z,994.06
2017-11-29T09:28:41.064Z,994.07
2017-11-29T09:29:41.066Z,994.02
2017-11-29T09:30:41.078Z,994.02
2017-11-29T09:31:41.088Z,994.06
2017-11-29T09:32:41.099Z,994.02
2017-11-29T09:33:41.109Z,994.03
2017-11-29T09:34:41.123Z,994.03
2017-11-29T09:35:41.134Z,994.03
2017-11-29T09:36:41.141Z,994.04
2017-11-29T09:37:41.153Z,994.03
2017-11-29T09:38:41.164Z,994.05
2017-11-29T09:39:41.177Z,994.03
2017-11-29T09:40:41.188Z,994.03
2017-11-29T09:41:41.199Z,993.93
2017-11-29T09:42:41.215Z,994.01
2017-11-29T09:43:41.220Z,994.02
2017-11-29T09:44:41.236Z,994.04
2017-11-29T09:45:41.243Z,994
2017-11-29T09:46:41.255Z,994
2017-11-29T09:47:41.267Z,994
2017-11-29T09:48:41.275Z,993.96
2017-11-29T09:49:41.287Z,993.98
2017-11-29T09:50:41.301Z,994
2017-11-29T09:51:41.313Z,993.99
2017-11-29T09:52:41.330Z,994
2017-11-29T09:53:41.337Z,993.98
2017-11-29T09:54:41.365Z,993.98
2017-11-29T09:55:41.357Z,993.91
2017-11-29T09:56:41.386Z,993.93
2017-11-29T09:57:41.381Z,993.93
2017-11-29T09:58:41.394Z,993.92
2017-11-29T09:59:41.401Z,993.91
2017-11-29T10:00:41.414Z,993.89
2017-11-29T10:01:41.424Z,993.89
2017-11-29T10:02:41.440Z,993.93
2017-11-29T10:03:41.449Z,993.9
2017-11-29T10:04:41.459Z,993.87
2017-11-29T10:05:41.469Z,993.87
2017-11-29T10:06:41.485Z,993.87
2017-11-29T10:07:41.496Z,993.86
2017-11-29T10:08:41.505Z,993.84
2017-11-29T10:09:41.520Z,993.85
2017-11-29T10:10:41.526Z,993.83
2017-11-29T10:11:41.538Z,993.82
2017-11-29T10:12:41.551Z,993.82
2017-11-29T10:13:41.561Z,993.82
2017-11-29T10:14:41.574Z,993.83
2017-11-29T10:15:41.584Z,993.88
2017-11-29T10:16:41.595Z,993.91
2017-11-29T10:17:41.608Z,993.86
2017-11-29T10:18:41.621Z,993.87
2017-11-29T10:19:41.631Z,993.82
2017-11-29T10:20:41.644Z,993.82
2017-11-29T10:21:41.652Z,993.81
2017-11-29T10:22:41.664Z,993.81
2017-11-29T10:23:41.676Z,993.81
2017-11-29T10:24:41.689Z,993.82
2017-11-29T10:25:41.701Z,993.84
2017-11-29T10:26:41.718Z,993.85
2017-11-29T10:27:41.721Z,993.81
2017-11-29T10:28:41.732Z,993.82
2017-11-29T10:29:41.758Z,993.83
2017-11-29T10:30:41.757Z,993.8
2017-11-29T10:31:41.769Z,993.81
2017-11-29T10:32:41.779Z,993.81
2017-11-29T10:33:41.791Z,993.8
2017-11-29T10:34:41.804Z,993.78
2017-11-29T10:35:41.815Z,993.84
2017-11-29T10:36:41.826Z,993.78
2017-11-29T10:37:41.836Z,993.76
2017-11-29T10:38:41.850Z,993.81
2017-11-29T10:39:41.860Z,993.76
2017-11-29T10:40:41.873Z,993.8
2017-11-29T10:41:41.886Z,993.77
2017-11-29T10:42:41.894Z,993.79
2017-11-29T10:43:41.908Z,993.81
2017-11-29T10:44:41.919Z,993.75
2017-11-29T10:45:41.931Z,993.79
2017-11-29T10:46:41.942Z,993.75
2017-11-29T10:47:41.952Z,993.79
2017-11-29T10:48:41.964Z,993.76
2017-11-29T10:49:41.977Z,993.76
2017-11-29T10:50:41.987Z,993.79
2017-11-29T10:51:42.001Z,993.78
2017-11-29T10:52:42.013Z,993.78
2017-11-29T10:53:42.024Z,993.81
2017-11-29T10:54:42.038Z,993.76
2017-11-29T10:55:42.047Z,993.8
2017-11-29T10:56:42.056Z,993.78
2017-11-29T10:57:42.072Z,993.76
2017-11-29T10:58:42.083Z,993.81
2017-11-29T10:59:42.092Z,993.8
2017-11-29T11:00:42.104Z,993.82
2017-11-29T11:01:42.115Z,993.78
2017-11-29T11:02:42.128Z,993.79
2017-11-29T11:03:42.140Z,993.82
2017-11-29T11:04:42.152Z,993.81
2017-11-29T11:05:42.165Z,993.81
2017-11-29T11:06:42.176Z,993.77
2017-11-29T11:07:42.186Z,993.78
2017-11-29T11:08:42.206Z,993.82
2017-11-29T11:09:42.212Z,993.82
2017-11-29T11:10:42.224Z,993.86
2017-11-29T11:11:42.234Z,993.85
2017-11-29T11:12:42.245Z,993.81
2017-11-29T11:13:42.258Z,993.83
2017-11-29T11:14:42.273Z,993.82
2017-11-29T11:15:42.282Z,993.87
2017-11-29T11:16:42.292Z,993.82
2017-11-29T11:17:42.314Z,993.82
2017-11-29T11:18:42.323Z,993.82
2017-11-29T11:19:42.340Z,993.8
2017-11-29T11:20:42.341Z,993.81
2017-11-29T11:21:42.354Z,993.77
2017-11-29T11:22:42.365Z,993.76
2017-11-29T11:23:42.375Z,993.78
2017-11-29T11:24:42.388Z,993.78
2017-11-29T11:25:42.403Z,993.8
2017-11-29T11:26:42.413Z,993.76
2017-11-29T11:27:42.452Z,993.73
2017-11-29T11:28:42.437Z,993.74
2017-11-29T11:29:42.449Z,993.77
2017-11-29T11:30:42.460Z,993.76
2017-11-29T11:31:42.472Z,993.75
2017-11-29T11:32:42.486Z,993.72
2017-11-29T11:33:42.498Z,993.75
2017-11-29T11:34:42.511Z,993.7
2017-11-29T11:35:42.523Z,993.72
2017-11-29T11:36:42.532Z,993.7
2017-11-29T11:37:42.545Z,993.72
2017-11-29T11:38:42.557Z,993.69
2017-11-29T11:39:42.568Z,993.71
2017-11-29T11:40:42.579Z,993.69
2017-11-29T11:41:42.594Z,993.72
2017-11-29T11:42:42.609Z,993.71
2017-11-29T11:43:42.617Z,993.7
2017-11-29T11:44:42.634Z,993.69
2017-11-29T11:45:42.642Z,993.69
2017-11-29T11:46:42.652Z,993.71
2017-11-29T11:47:42.665Z,993.7
2017-11-29T11:48:42.677Z,993.7
2017-11-29T11:49:42.692Z,993.68
2017-11-29T11:50:42.702Z,993.69
2017-11-29T11:51:42.714Z,993.67
2017-11-29T11:52:42.728Z,993.68
2017-11-29T11:53:42.738Z,993.63
2017-11-29T11:54:42.751Z,993.61
2017-11-29T11:55:42.762Z,993.6
2017-11-29T11:56:42.774Z,993.55
2017-11-29T11:57:42.802Z,993.57
2017-11-29T11:58:42.799Z,993.54
2017-11-29T11:59:42.812Z,993.54
2017-11-29T12:00:42.824Z,993.55
2017-11-29T12:01:42.836Z,993.49
2017-11-29T12:02:42.849Z,993.5
2017-11-29T12:03:42.861Z,993.53
2017-11-29T12:04:42.875Z,993.52
2017-11-29T12:05:42.896Z,993.53
2017-11-29T12:06:42.901Z,993.49
2017-11-29T12:07:42.910Z,993.47
2017-11-29T12:08:42.924Z,993.48
2017-11-29T12:09:42.935Z,993.44
2017-11-29T12:10:42.948Z,993.45
2017-11-29T12:11:42.961Z,993.45
2017-11-29T12:12:42.974Z,993.43
2017-11-29T12:13:42.986Z,993.41
2017-11-29T12:14:43.002Z,993.39
2017-11-29T12:15:43.009Z,993.39
2017-11-29T12:16:43.022Z,993.39
2017-11-29T12:17:43.035Z,993.37
2017-11-29T12:18:43.051Z,993.43
2017-11-29T12:19:43.064Z,993.4
2017-11-29T12:20:43.073Z,993.4
2017-11-29T12:21:43.085Z,993.4
2017-11-29T12:22:43.097Z,993.45
2017-11-29T12:23:43.109Z,993.38
2017-11-29T12:24:43.122Z,993.44
2017-11-29T12:25:43.133Z,993.42
2017-11-29T12:26:43.145Z,993.43
2017-11-29T12:27:43.161Z,993.42
2017-11-29T12:28:43.174Z,993.41
2017-11-29T12:29:43.191Z,993.39
2017-11-29T12:30:43.198Z,993.38
2017-11-29T12:31:43.208Z,993.43
2017-11-29T12:32:43.224Z,993.4